Aviation Digital Data Service (ADDS)

Output produced by TAFs form (0311 UTC 18 August 2017)
found at http://www.aviationweather.gov/adds/tafs/
 
KTUS 172326Z 1800/1824 34007KT P6SM SKC 
     FM180700 15005KT P6SM SKC 
     FM181800 35007KT P6SM SCT250